Terminal Aerodrome Forecast
Issued by NWS

Home | Current Version | Previous Version | Text Only | Print | Product List | Glossary On
Versions: 1 2 3 4 5 6 7 8 9 10 11 12 13 14
605
FTUS44 KLZK 080520
TAFADF
TAF
KADF 080520Z 0806/0906 30007KT P6SM BKN250
     FM080900 30012G18KT P6SM SCT150
     FM081600 32014G24KT P6SM BKN040
     FM090000 33012G18KT P6SM SCT040=

USA.gov is the U.S. government's official web portal to all federal, state and local government web resources and services.